Columbus, Ohio
Traffic Map
Current Weather Conditions
Columbus, Ohio
Broken Clouds
Broken Clouds
67°
Feels Like: 67°
Wind Chill: 67° Ceiling: 12000
Heat Index: 67° Visibility: 10mi
Dew Point: 56° Wind: 5mph
Humidity: 68% Direction: 70° (ENE)
Pressure: 30.06in Gusts: 0mph
Raw Report DataKCMH 291651Z 07004KT 10SM SCT025 BKN120 BKN200 19/13 A3006 RMK AO2 SLP177 T01940133
Traffic Incident Summary
Active as of:
Severity:
Category:
InformationThere was an issue retrieving the traffic information for this location. Please try a different location or try again shortly.
Advertisements
Track Severe Weather on mobile